createdAt,value
2018-03-01T00:00:20.616Z,58.82
2018-03-01T00:01:20.582Z,59.01
2018-03-01T00:02:41.530Z,59.11
2018-03-01T00:03:20.551Z,58.82
2018-03-01T00:04:20.543Z,59.20
2018-03-01T00:05:20.509Z,58.73
2018-03-01T00:06:20.555Z,58.16
2018-03-01T00:07:20.494Z,58.26
2018-03-01T00:08:41.454Z,58.10
2018-03-01T00:09:20.474Z,58.73
2018-03-01T00:10:21.148Z,59.04
2018-03-01T00:11:20.450Z,58.92
2018-03-01T00:12:20.443Z,58.73
2018-03-01T00:13:20.934Z,58.76
2018-03-01T00:14:41.366Z,59.20
2018-03-01T00:15:20.385Z,58.76
2018-03-01T00:16:21.411Z,59.42
2018-03-01T00:17:20.370Z,59.23
2018-03-01T00:18:20.302Z,58.76
2018-03-01T00:19:20.349Z,59.42
2018-03-01T00:20:41.288Z,58.95
2018-03-01T00:21:20.330Z,58.85
2018-03-01T00:22:20.286Z,58.66
2018-03-01T00:23:20.241Z,58.85
2018-03-01T00:24:20.216Z,58.47
2018-03-01T00:25:20.207Z,58.95
2018-03-01T00:26:41.185Z,58.76
2018-03-01T00:27:20.173Z,58.85
2018-03-01T00:28:20.170Z,58.85
2018-03-01T00:29:20.151Z,58.85
2018-03-01T00:30:20.133Z,58.57
2018-03-01T00:31:20.125Z,59.04
2018-03-01T00:32:41.128Z,58.10
2018-03-01T00:33:20.087Z,58.85
2018-03-01T00:34:20.081Z,59.23
2018-03-01T00:35:20.083Z,59.23
2018-03-01T00:36:20.046Z,58.57
2018-03-01T00:37:20.024Z,59.23
2018-03-01T00:38:41.017Z,58.76
2018-03-01T00:39:20.015Z,58.85
2018-03-01T00:40:19.993Z,58.95
2018-03-01T00:41:19.985Z,58.10
2018-03-01T00:42:19.961Z,58.38
2018-03-01T00:43:19.957Z,57.91
2018-03-01T00:44:40.951Z,58.76
2018-03-01T00:45:19.919Z,58.76
2018-03-01T00:46:19.899Z,59.23
2018-03-01T00:47:19.881Z,58.85
2018-03-01T00:48:19.884Z,58.85
2018-03-01T00:49:19.853Z,59.04
2018-03-01T00:50:40.864Z,58.19
2018-03-01T00:51:19.829Z,58.76
2018-03-01T00:52:19.818Z,58.10
2018-03-01T00:53:19.807Z,58.19
2018-03-01T00:54:19.805Z,58.00
2018-03-01T00:55:19.770Z,58.95
2018-03-01T00:56:40.800Z,58.76
2018-03-01T00:57:19.762Z,59.04
2018-03-01T00:58:19.730Z,58.76
2018-03-01T00:59:19.740Z,59.04
2018-03-01T01:00:19.716Z,58.76
2018-03-01T01:01:19.698Z,58.76
2018-03-01T01:02:40.713Z,58.66
2018-03-01T01:03:20.309Z,58.85
2018-03-01T01:04:19.653Z,58.66
2018-03-01T01:05:19.646Z,58.38
2018-03-01T01:06:19.632Z,58.10
2018-03-01T01:07:19.618Z,58.00
2018-03-01T01:08:40.678Z,58.38
2018-03-01T01:09:19.568Z,58.00
2018-03-01T01:10:19.577Z,57.91
2018-03-01T01:11:19.547Z,57.91
2018-03-01T01:12:19.605Z,57.91
2018-03-01T01:13:19.529Z,58.00
2018-03-01T01:14:40.516Z,57.81
2018-03-01T01:15:19.486Z,57.91
2018-03-01T01:16:19.495Z,58.57
2018-03-01T01:17:19.473Z,58.95
2018-03-01T01:18:19.441Z,58.38
2018-03-01T01:19:19.441Z,58.00
2018-03-01T01:20:40.447Z,57.91
2018-03-01T01:21:19.431Z,58.00
2018-03-01T01:22:19.385Z,57.81
2018-03-01T01:23:19.396Z,58.38
2018-03-01T01:24:19.412Z,57.81
2018-03-01T01:25:19.367Z,57.91
2018-03-01T01:26:41.103Z,57.25
2018-03-01T01:27:19.334Z,57.72
2018-03-01T01:28:19.306Z,57.34
2018-03-01T01:29:19.312Z,57.81
2018-03-01T01:30:19.286Z,57.62
2018-03-01T01:31:19.268Z,57.72
2018-03-01T01:32:40.271Z,57.62
2018-03-01T01:33:19.239Z,57.72
2018-03-01T01:34:19.235Z,57.72
2018-03-01T01:35:19.220Z,57.62
2018-03-01T01:36:19.207Z,57.81
2018-03-01T01:37:19.198Z,57.53
2018-03-01T01:38:40.192Z,57.34
2018-03-01T01:39:19.160Z,57.62
2018-03-01T01:40:19.166Z,57.15
2018-03-01T01:41:19.129Z,57.25
2018-03-01T01:42:19.128Z,57.72
2018-03-01T01:43:19.854Z,57.53
2018-03-01T01:44:40.095Z,57.43
2018-03-01T01:45:19.101Z,57.25
2018-03-01T01:46:19.059Z,57.62
2018-03-01T01:47:19.046Z,57.53
2018-03-01T01:48:19.033Z,58.00
2018-03-01T01:49:19.032Z,57.34
2018-03-01T01:50:41.032Z,57.62
2018-03-01T01:51:19.002Z,57.62
2018-03-01T01:52:18.968Z,57.91
2018-03-01T01:53:18.957Z,57.91
2018-03-01T01:54:18.956Z,57.91
2018-03-01T01:55:18.941Z,58.10
2018-03-01T01:56:39.987Z,57.43
2018-03-01T01:57:19.662Z,57.53
2018-03-01T01:58:18.904Z,57.25
2018-03-01T01:59:18.897Z,57.06
2018-03-01T02:00:18.877Z,57.25
2018-03-01T02:01:18.858Z,57.62
2018-03-01T02:02:39.840Z,57.34
2018-03-01T02:03:18.832Z,57.06
2018-03-01T02:04:18.839Z,57.25
2018-03-01T02:05:18.802Z,56.68
2018-03-01T02:06:18.781Z,57.25
2018-03-01T02:07:18.780Z,57.25
2018-03-01T02:08:39.772Z,56.96
2018-03-01T02:09:18.748Z,56.68
2018-03-01T02:10:18.736Z,56.96
2018-03-01T02:11:18.738Z,56.40
2018-03-01T02:12:18.706Z,56.59
2018-03-01T02:13:18.700Z,56.59
2018-03-01T02:14:39.674Z,56.68
2018-03-01T02:15:18.649Z,57.06
2018-03-01T02:16:18.653Z,56.77
2018-03-01T02:17:18.651Z,56.59
2018-03-01T02:18:18.614Z,56.68
2018-03-01T02:19:18.640Z,57.34
2018-03-01T02:20:39.589Z,56.68
2018-03-01T02:21:18.587Z,57.25
2018-03-01T02:22:18.555Z,57.43
2018-03-01T02:23:18.550Z,57.34
2018-03-01T02:24:18.546Z,57.06
2018-03-01T02:25:18.522Z,57.34
2018-03-01T02:26:39.506Z,58.00
2018-03-01T02:27:18.487Z,57.81
2018-03-01T02:28:18.464Z,57.62
2018-03-01T02:29:18.472Z,57.62
2018-03-01T02:30:18.447Z,57.25
2018-03-01T02:31:18.432Z,57.15
2018-03-01T02:32:39.418Z,57.53
2018-03-01T02:33:18.403Z,57.15
2018-03-01T02:34:18.397Z,57.43
2018-03-01T02:35:18.388Z,57.53
2018-03-01T02:36:18.353Z,57.25
2018-03-01T02:37:18.346Z,57.62
2018-03-01T02:38:39.347Z,57.62
2018-03-01T02:39:18.327Z,57.53
2018-03-01T02:40:18.305Z,57.62
2018-03-01T02:41:18.281Z,57.62
2018-03-01T02:42:18.277Z,57.53
2018-03-01T02:43:18.287Z,57.72
2018-03-01T02:44:39.255Z,57.72
2018-03-01T02:45:18.263Z,57.34
2018-03-01T02:46:18.222Z,57.72
2018-03-01T02:47:18.933Z,57.91
2018-03-01T02:48:18.196Z,57.43
2018-03-01T02:49:18.190Z,57.81
2018-03-01T02:50:40.998Z,57.62
2018-03-01T02:51:18.157Z,57.62
2018-03-01T02:52:18.133Z,58.19
2018-03-01T02:53:18.138Z,57.91
2018-03-01T02:54:18.132Z,57.72
2018-03-01T02:55:18.105Z,58.00
2018-03-01T02:56:39.093Z,57.62
2018-03-01T02:57:18.589Z,57.62
2018-03-01T02:58:18.057Z,57.81
2018-03-01T02:59:18.035Z,57.72
2018-03-01T03:00:18.036Z,57.81
2018-03-01T03:01:18.024Z,57.72
2018-03-01T03:02:39.847Z,58.10
2018-03-01T03:03:17.994Z,58.10
2018-03-01T03:04:17.976Z,57.62
2018-03-01T03:05:17.968Z,57.25
2018-03-01T03:06:17.948Z,57.72
2018-03-01T03:07:17.930Z,58.00
2018-03-01T03:08:38.903Z,57.91
2018-03-01T03:09:17.910Z,58.10
2018-03-01T03:10:17.883Z,57.91
2018-03-01T03:11:17.887Z,58.00
2018-03-01T03:12:17.858Z,57.72
2018-03-01T03:13:17.850Z,57.72
2018-03-01T03:14:38.828Z,57.62
2018-03-01T03:15:17.821Z,57.62
2018-03-01T03:16:17.804Z,57.43
2018-03-01T03:17:17.780Z,57.62
2018-03-01T03:18:17.771Z,58.00
2018-03-01T03:19:17.751Z,58.10
2018-03-01T03:20:38.752Z,58.19
2018-03-01T03:21:17.736Z,58.10
2018-03-01T03:22:17.693Z,58.66
2018-03-01T03:23:17.709Z,58.95
2018-03-01T03:24:17.695Z,58.66
2018-03-01T03:25:17.686Z,58.85
2018-03-01T03:26:38.682Z,58.76
2018-03-01T03:27:17.638Z,58.85
2018-03-01T03:28:17.649Z,58.85
2018-03-01T03:29:17.623Z,58.95
2018-03-01T03:30:17.602Z,58.85
2018-03-01T03:31:17.591Z,59.23
2018-03-01T03:32:38.586Z,58.85
2018-03-01T03:33:17.584Z,58.66
2018-03-01T03:34:17.558Z,58.95
2018-03-01T03:35:17.539Z,58.85
2018-03-01T03:36:17.499Z,59.23
2018-03-01T03:37:17.502Z,58.66
2018-03-01T03:38:38.545Z,59.04
2018-03-01T03:39:17.489Z,58.76
2018-03-01T03:40:17.458Z,59.33
2018-03-01T03:41:17.449Z,59.23
2018-03-01T03:42:17.444Z,58.76
2018-03-01T03:43:17.413Z,59.33
2018-03-01T03:44:38.440Z,58.66
2018-03-01T03:45:17.386Z,59.14
2018-03-01T03:46:17.379Z,59.14
2018-03-01T03:47:17.355Z,59.23
2018-03-01T03:48:17.356Z,58.66
2018-03-01T03:49:17.342Z,58.85
2018-03-01T03:50:38.394Z,59.33
2018-03-01T03:51:17.310Z,59.23
2018-03-01T03:52:17.288Z,58.47
2018-03-01T03:53:17.280Z,58.95
2018-03-01T03:54:17.268Z,59.23
2018-03-01T03:55:17.257Z,59.04
2018-03-01T03:56:38.318Z,59.04
2018-03-01T03:57:17.228Z,58.57
2018-03-01T03:58:17.219Z,58.85
2018-03-01T03:59:17.199Z,59.23
2018-03-01T04:00:17.178Z,58.85
2018-03-01T04:01:17.160Z,59.33
2018-03-01T04:02:38.158Z,58.76
2018-03-01T04:03:17.127Z,58.95
2018-03-01T04:04:17.115Z,59.14
2018-03-01T04:05:17.112Z,58.66
2018-03-01T04:06:17.088Z,59.23
2018-03-01T04:07:17.110Z,59.14
2018-03-01T04:08:38.076Z,59.33
2018-03-01T04:09:17.057Z,58.95
2018-03-01T04:10:17.902Z,59.14
2018-03-01T04:11:17.029Z,58.95
2018-03-01T04:12:17.541Z,59.42
2018-03-01T04:13:16.999Z,59.51
2018-03-01T04:14:37.977Z,59.33
2018-03-01T04:15:16.978Z,59.04
2018-03-01T04:16:16.949Z,59.14
2018-03-01T04:17:16.964Z,59.04
2018-03-01T04:18:16.912Z,58.95
2018-03-01T04:19:16.917Z,58.76
2018-03-01T04:20:37.912Z,59.23
2018-03-01T04:21:16.880Z,59.23
2018-03-01T04:22:16.868Z,59.23
2018-03-01T04:23:16.883Z,59.51
2018-03-01T04:24:16.845Z,59.14
2018-03-01T04:25:16.829Z,59.04
2018-03-01T04:26:37.828Z,59.33
2018-03-01T04:27:16.803Z,58.76
2018-03-01T04:28:16.792Z,58.57
2018-03-01T04:29:16.773Z,58.76
2018-03-01T04:30:16.753Z,59.04
2018-03-01T04:31:16.740Z,59.42
2018-03-01T04:32:37.732Z,59.04
2018-03-01T04:33:16.730Z,59.04
2018-03-01T04:34:16.702Z,59.23
2018-03-01T04:35:18.384Z,59.04
2018-03-01T04:36:16.677Z,59.33
2018-03-01T04:37:16.665Z,59.33
2018-03-01T04:38:37.630Z,59.04
2018-03-01T04:39:17.340Z,59.42
2018-03-01T04:40:16.628Z,59.14
2018-03-01T04:41:16.621Z,59.51
2018-03-01T04:42:16.585Z,58.76
2018-03-01T04:43:17.884Z,59.04
2018-03-01T04:44:37.563Z,58.95
2018-03-01T04:45:16.578Z,59.23
2018-03-01T04:46:16.540Z,59.23
2018-03-01T04:47:16.517Z,59.23
2018-03-01T04:48:16.498Z,59.14
2018-03-01T04:49:16.489Z,59.61
2018-03-01T04:50:37.471Z,59.42
2018-03-01T04:51:16.465Z,59.61
2018-03-01T04:52:16.451Z,59.04
2018-03-01T04:53:16.442Z,59.51
2018-03-01T04:54:16.441Z,59.70
2018-03-01T04:55:16.396Z,59.61
2018-03-01T04:56:37.409Z,59.70
2018-03-01T04:57:16.388Z,59.51
2018-03-01T04:58:16.357Z,59.80
2018-03-01T04:59:16.348Z,59.23
2018-03-01T05:00:16.419Z,58.76
2018-03-01T05:01:16.302Z,59.51
2018-03-01T05:02:37.300Z,59.23
2018-03-01T05:03:16.292Z,59.23
2018-03-01T05:04:17.035Z,59.33
2018-03-01T05:05:16.264Z,59.33
2018-03-01T05:06:16.249Z,59.23
2018-03-01T05:07:16.250Z,59.51
2018-03-01T05:08:37.222Z,59.23
2018-03-01T05:09:16.197Z,59.51
2018-03-01T05:10:16.196Z,59.23
2018-03-01T05:11:16.179Z,59.33
2018-03-01T05:12:16.162Z,59.61
2018-03-01T05:13:16.146Z,59.70
2018-03-01T05:14:37.122Z,59.70
2018-03-01T05:15:17.005Z,59.70
2018-03-01T05:16:16.105Z,59.70
2018-03-01T05:17:16.089Z,59.04
2018-03-01T05:18:16.086Z,59.23
2018-03-01T05:19:16.061Z,59.42
2018-03-01T05:20:37.059Z,59.33
2018-03-01T05:21:16.049Z,59.33
2018-03-01T05:22:16.033Z,59.33
2018-03-01T05:23:16.024Z,59.14
2018-03-01T05:24:15.988Z,59.70
2018-03-01T05:25:15.979Z,59.70
2018-03-01T05:26:36.967Z,58.95
2018-03-01T05:27:15.957Z,59.33
2018-03-01T05:28:15.932Z,59.33
2018-03-01T05:29:15.942Z,59.51
2018-03-01T05:30:16.588Z,59.14
2018-03-01T05:31:15.905Z,59.04
2018-03-01T05:32:36.894Z,58.85
2018-03-01T05:33:15.888Z,59.04
2018-03-01T05:34:15.855Z,59.14
2018-03-01T05:35:15.847Z,59.42
2018-03-01T05:36:15.826Z,59.80
2018-03-01T05:37:15.812Z,59.70
2018-03-01T05:38:36.812Z,58.95
2018-03-01T05:39:15.791Z,59.14
2018-03-01T05:40:15.783Z,59.04
2018-03-01T05:41:15.765Z,59.23
2018-03-01T05:42:15.753Z,59.14
2018-03-01T05:43:15.735Z,59.14
2018-03-01T05:44:36.727Z,59.80
2018-03-01T05:45:15.709Z,59.70
2018-03-01T05:46:15.696Z,58.95
2018-03-01T05:47:15.666Z,59.04
2018-03-01T05:48:15.671Z,58.95
2018-03-01T05:49:15.643Z,59.23
2018-03-01T05:50:36.644Z,59.33
2018-03-01T05:51:15.611Z,59.14
2018-03-01T05:52:15.615Z,59.42
2018-03-01T05:53:15.588Z,58.95
2018-03-01T05:54:15.558Z,59.14
2018-03-01T05:55:15.558Z,58.95
2018-03-01T05:56:36.554Z,59.80
2018-03-01T05:57:15.549Z,59.80
2018-03-01T05:58:15.524Z,59.80
2018-03-01T05:59:15.508Z,59.70
2018-03-01T06:00:15.537Z,59.42
2018-03-01T06:01:15.479Z,58.66
2018-03-01T06:02:36.526Z,58.85
2018-03-01T06:03:15.453Z,58.95
2018-03-01T06:04:15.438Z,59.23
2018-03-01T06:05:15.432Z,59.23
2018-03-01T06:06:15.397Z,59.04
2018-03-01T06:07:15.394Z,59.61
2018-03-01T06:08:36.388Z,58.95
2018-03-01T06:09:15.370Z,58.95
2018-03-01T06:10:15.343Z,58.95
2018-03-01T06:11:15.344Z,58.85
2018-03-01T06:12:15.320Z,58.76
2018-03-01T06:13:15.318Z,58.76
2018-03-01T06:14:36.305Z,58.76
2018-03-01T06:15:15.289Z,58.57
2018-03-01T06:16:15.273Z,58.57
2018-03-01T06:17:15.250Z,58.85
2018-03-01T06:18:15.240Z,59.04
2018-03-01T06:19:15.225Z,58.10
2018-03-01T06:20:36.222Z,58.19
2018-03-01T06:21:15.214Z,58.29
2018-03-01T06:22:15.196Z,57.91
2018-03-01T06:23:15.160Z,58.38
2018-03-01T06:24:15.170Z,58.10
2018-03-01T06:25:16.030Z,59.23
2018-03-01T06:26:36.124Z,59.04
2018-03-01T06:27:15.119Z,58.76
2018-03-01T06:28:15.107Z,58.76
2018-03-01T06:29:15.077Z,58.85
2018-03-01T06:30:16.432Z,59.23
2018-03-01T06:31:15.053Z,58.76
2018-03-01T06:32:36.056Z,58.66
2018-03-01T06:33:15.025Z,58.66
2018-03-01T06:34:15.012Z,58.66
2018-03-01T06:35:15.881Z,58.29
2018-03-01T06:36:14.972Z,58.19
2018-03-01T06:37:14.974Z,57.81
2018-03-01T06:38:35.969Z,57.91
2018-03-01T06:39:14.950Z,58.10
2018-03-01T06:40:14.922Z,57.91
2018-03-01T06:41:14.911Z,58.10
2018-03-01T06:42:14.889Z,57.81
2018-03-01T06:43:14.907Z,58.10
2018-03-01T06:44:35.869Z,58.00
2018-03-01T06:45:14.854Z,57.81
2018-03-01T06:46:14.843Z,57.81
2018-03-01T06:47:14.845Z,58.19
2018-03-01T06:48:14.813Z,58.29
2018-03-01T06:49:14.799Z,58.10
2018-03-01T06:50:35.794Z,58.38
2018-03-01T06:51:14.762Z,58.10
2018-03-01T06:52:14.755Z,58.10
2018-03-01T06:53:14.738Z,58.38
2018-03-01T06:54:14.739Z,58.10
2018-03-01T06:55:14.726Z,58.29
2018-03-01T06:56:35.729Z,58.10
2018-03-01T06:57:14.679Z,58.19
2018-03-01T06:58:15.608Z,58.00
2018-03-01T06:59:14.657Z,58.19
2018-03-01T07:00:14.647Z,57.91
2018-03-01T07:01:14.641Z,57.72
2018-03-01T07:02:35.638Z,57.34
2018-03-01T07:03:14.609Z,57.34
2018-03-01T07:04:14.571Z,57.34
2018-03-01T07:05:14.606Z,57.25
2018-03-01T07:06:14.571Z,57.91
2018-03-01T07:07:14.540Z,57.62
2018-03-01T07:08:35.543Z,57.62
2018-03-01T07:09:14.527Z,57.34
2018-03-01T07:10:14.508Z,56.77
2018-03-01T07:11:14.483Z,56.87
2018-03-01T07:12:14.500Z,57.25
2018-03-01T07:13:14.454Z,57.53
2018-03-01T07:14:35.458Z,57.81
2018-03-01T07:15:14.428Z,57.15
2018-03-01T07:16:14.415Z,57.34
2018-03-01T07:17:14.425Z,57.06
2018-03-01T07:18:14.394Z,57.25
2018-03-01T07:19:14.381Z,57.43
2018-03-01T07:20:35.362Z,57.34
2018-03-01T07:21:14.344Z,56.96
2018-03-01T07:22:14.340Z,57.06
2018-03-01T07:23:14.328Z,56.77
2018-03-01T07:24:14.311Z,56.96
2018-03-01T07:25:14.289Z,56.59
2018-03-01T07:26:35.282Z,56.77
2018-03-01T07:27:14.268Z,56.77
2018-03-01T07:28:14.291Z,56.21
2018-03-01T07:29:14.231Z,56.59
2018-03-01T07:30:14.219Z,56.59
2018-03-01T07:31:14.212Z,56.30
2018-03-01T07:32:35.208Z,56.21
2018-03-01T07:33:14.179Z,56.49
2018-03-01T07:34:14.163Z,57.34
2018-03-01T07:35:14.172Z,56.96
2018-03-01T07:36:14.140Z,56.59
2018-03-01T07:37:14.130Z,56.49
2018-03-01T07:38:35.116Z,56.30
2018-03-01T07:39:14.086Z,56.02
2018-03-01T07:40:14.083Z,56.49
2018-03-01T07:41:14.079Z,56.30
2018-03-01T07:42:14.086Z,56.40
2018-03-01T07:43:14.084Z,56.02
2018-03-01T07:44:35.027Z,56.02
2018-03-01T07:45:14.053Z,55.74
2018-03-01T07:46:14.019Z,55.93
2018-03-01T07:47:13.976Z,55.93
2018-03-01T07:48:14.958Z,55.65
2018-03-01T07:49:13.996Z,54.89
2018-03-01T07:50:34.952Z,55.18
2018-03-01T07:51:13.937Z,55.18
2018-03-01T07:52:13.966Z,55.08
2018-03-01T07:53:13.946Z,55.18
2018-03-01T07:54:13.945Z,55.18
2018-03-01T07:55:14.432Z,55.93
2018-03-01T07:56:34.855Z,55.93
2018-03-01T07:57:13.917Z,55.36
2018-03-01T07:58:13.854Z,55.36
2018-03-01T07:59:13.848Z,55.27
2018-03-01T08:00:13.821Z,55.18
2018-03-01T08:01:13.780Z,55.27
2018-03-01T08:02:34.788Z,55.18
2018-03-01T08:03:14.457Z,54.99
2018-03-01T08:04:14.393Z,54.89
2018-03-01T08:05:13.747Z,55.08
2018-03-01T08:06:13.707Z,55.08
2018-03-01T08:07:13.702Z,55.36
2018-03-01T08:08:34.687Z,55.18
2018-03-01T08:09:13.681Z,54.61
2018-03-01T08:10:13.690Z,55.18
2018-03-01T08:11:13.656Z,54.54
2018-03-01T08:12:13.622Z,54.61
2018-03-01T08:13:13.621Z,54.54
2018-03-01T08:14:34.599Z,54.63
2018-03-01T08:15:13.578Z,54.16
2018-03-01T08:16:13.576Z,54.16
2018-03-01T08:17:13.576Z,53.13
2018-03-01T08:18:13.555Z,53.59
2018-03-01T08:19:13.547Z,53.50
2018-03-01T08:20:34.514Z,53.22
2018-03-01T08:21:13.514Z,53.13
2018-03-01T08:22:13.489Z,53.22
2018-03-01T08:23:13.488Z,53.31
2018-03-01T08:24:13.464Z,53.41
2018-03-01T08:25:13.485Z,53.31
2018-03-01T08:26:34.451Z,53.69
2018-03-01T08:27:13.437Z,53.50
2018-03-01T08:28:13.427Z,53.41
2018-03-01T08:29:14.169Z,52.94
2018-03-01T08:30:13.381Z,53.03
2018-03-01T08:31:13.380Z,52.66
2018-03-01T08:32:35.235Z,53.22
2018-03-01T08:33:13.363Z,53.41
2018-03-01T08:34:13.345Z,52.37
2018-03-01T08:35:13.324Z,52.75
2018-03-01T08:36:13.309Z,52.75
2018-03-01T08:37:13.303Z,52.56
2018-03-01T08:38:34.288Z,52.18
2018-03-01T08:39:13.277Z,52.66
2018-03-01T08:40:13.265Z,52.84
2018-03-01T08:41:13.249Z,52.09
2018-03-01T08:42:13.229Z,52.09
2018-03-01T08:43:13.209Z,52.18
2018-03-01T08:44:34.267Z,52.18
2018-03-01T08:45:13.183Z,52.37
2018-03-01T08:46:14.024Z,52.18
2018-03-01T08:47:13.149Z,51.99
2018-03-01T08:48:13.148Z,52.18
2018-03-01T08:49:13.132Z,52.18
2018-03-01T08:50:34.158Z,52.28
2018-03-01T08:51:13.096Z,52.66
2018-03-01T08:52:13.096Z,52.56
2018-03-01T08:53:13.084Z,52.28
2018-03-01T08:54:13.063Z,52.28
2018-03-01T08:55:13.049Z,51.90
2018-03-01T08:56:34.079Z,51.90
2018-03-01T08:57:13.038Z,51.62
2018-03-01T08:58:13.021Z,51.81
2018-03-01T08:59:12.991Z,51.14
2018-03-01T09:00:12.975Z,51.33
2018-03-01T09:01:12.974Z,51.24
2018-03-01T09:02:34.003Z,51.33
2018-03-01T09:03:12.946Z,51.33
2018-03-01T09:04:12.941Z,50.86
2018-03-01T09:05:12.911Z,50.58
2018-03-01T09:06:12.906Z,50.29
2018-03-01T09:07:12.898Z,50.67
2018-03-01T09:08:33.946Z,50.67
2018-03-01T09:09:12.862Z,50.67
2018-03-01T09:10:12.874Z,50.48
2018-03-01T09:11:12.853Z,50.20
2018-03-01T09:12:12.825Z,50.67
2018-03-01T09:13:12.825Z,50.76
2018-03-01T09:14:33.821Z,50.32
2018-03-01T09:15:12.783Z,50.42
2018-03-01T09:16:13.513Z,50.70
2018-03-01T09:17:12.762Z,50.60
2018-03-01T09:18:12.754Z,49.85
2018-03-01T09:19:12.731Z,50.32
2018-03-01T09:20:34.383Z,49.47
2018-03-01T09:21:12.701Z,49.57
2018-03-01T09:22:12.705Z,49.38
2018-03-01T09:23:12.679Z,49.57
2018-03-01T09:24:12.669Z,49.47
2018-03-01T09:25:12.668Z,49.47
2018-03-01T09:26:33.659Z,49.38
2018-03-01T09:27:12.635Z,49.47
2018-03-01T09:28:12.618Z,49.47
2018-03-01T09:29:12.606Z,49.00
2018-03-01T09:30:12.585Z,48.62
2018-03-01T09:31:12.587Z,48.90
2018-03-01T09:32:34.560Z,49.00
2018-03-01T09:33:12.570Z,48.81
2018-03-01T09:34:13.242Z,48.05
2018-03-01T09:35:12.508Z,47.96
2018-03-01T09:36:12.523Z,48.81
2018-03-01T09:37:12.555Z,48.62
2018-03-01T09:38:33.486Z,48.90
2018-03-01T09:39:12.477Z,48.52
2018-03-01T09:40:12.463Z,48.90
2018-03-01T09:41:12.466Z,48.81
2018-03-01T09:42:12.442Z,48.34
2018-03-01T09:43:12.434Z,48.24
2018-03-01T09:44:33.423Z,48.71
2018-03-01T09:45:12.415Z,48.52
2018-03-01T09:46:12.389Z,48.52
2018-03-01T09:47:12.374Z,48.90
2018-03-01T09:48:12.374Z,48.24
2018-03-01T09:49:12.366Z,47.96
2018-03-01T09:50:33.330Z,47.77
2018-03-01T09:51:12.317Z,47.11
2018-03-01T09:52:12.307Z,46.64
2018-03-01T09:53:12.294Z,47.39
2018-03-01T09:54:12.287Z,47.49
2018-03-01T09:55:12.284Z,47.30
2018-03-01T09:56:33.274Z,47.49
2018-03-01T09:57:12.240Z,47.39
2018-03-01T09:58:12.233Z,47.30
2018-03-01T09:59:12.231Z,47.67
2018-03-01T10:00:12.203Z,47.39
2018-03-01T10:01:12.200Z,47.77
2018-03-01T10:02:33.188Z,46.73
2018-03-01T10:03:12.178Z,46.64
2018-03-01T10:04:12.160Z,46.92
2018-03-01T10:05:12.122Z,46.73
2018-03-01T10:06:12.135Z,46.55
2018-03-01T10:07:12.130Z,46.45
2018-03-01T10:08:33.115Z,46.73
2018-03-01T10:09:12.071Z,46.73
2018-03-01T10:10:12.084Z,46.64
2018-03-01T10:11:12.061Z,46.45
2018-03-01T10:12:12.051Z,46.07
2018-03-01T10:13:12.047Z,46.28
2018-03-01T10:14:33.042Z,46.09
2018-03-01T10:15:12.019Z,45.81
2018-03-01T10:16:12.011Z,45.22
2018-03-01T10:17:11.998Z,46.00
2018-03-01T10:18:11.982Z,45.60
2018-03-01T10:19:12.656Z,45.81
2018-03-01T10:20:32.952Z,45.90
2018-03-01T10:21:11.943Z,45.34
2018-03-01T10:22:11.925Z,45.25
2018-03-01T10:23:11.908Z,45.43
2018-03-01T10:24:11.895Z,45.34
2018-03-01T10:25:11.892Z,45.06
2018-03-01T10:26:32.880Z,45.06
2018-03-01T10:27:11.852Z,44.96
2018-03-01T10:28:11.872Z,44.77
2018-03-01T10:29:11.833Z,44.21
2018-03-01T10:30:12.699Z,44.21
2018-03-01T10:31:11.817Z,44.68
2018-03-01T10:32:32.808Z,44.39
2018-03-01T10:33:11.825Z,44.32
2018-03-01T10:34:11.800Z,44.13
2018-03-01T10:35:11.754Z,44.02
2018-03-01T10:36:11.754Z,43.95
2018-03-01T10:37:11.740Z,43.64
2018-03-01T10:38:32.734Z,43.64
2018-03-01T10:39:11.710Z,43.76
2018-03-01T10:40:11.713Z,43.47
2018-03-01T10:41:11.691Z,43.16
2018-03-01T10:42:11.674Z,43.35
2018-03-01T10:43:11.657Z,43.76
2018-03-01T10:44:33.566Z,43.85
2018-03-01T10:45:11.635Z,43.28
2018-03-01T10:46:11.640Z,42.90
2018-03-01T10:47:11.626Z,42.62
2018-03-01T10:48:11.625Z,42.71
2018-03-01T10:49:11.567Z,42.71
2018-03-01T10:50:32.594Z,42.05
2018-03-01T10:51:11.565Z,41.77
2018-03-01T10:52:11.555Z,41.96
2018-03-01T10:53:12.920Z,42.08
2018-03-01T10:54:11.528Z,41.89
2018-03-01T10:55:11.507Z,41.98
2018-03-01T10:56:32.498Z,41.49
2018-03-01T10:57:11.483Z,41.11
2018-03-01T10:58:11.481Z,40.92
2018-03-01T10:59:11.465Z,41.32
2018-03-01T11:00:11.497Z,40.94
2018-03-01T11:01:11.453Z,40.66
2018-03-01T11:02:32.428Z,40.66
2018-03-01T11:03:11.410Z,40.47
2018-03-01T11:04:11.410Z,40.56
2018-03-01T11:05:11.392Z,40.73
2018-03-01T11:06:11.359Z,40.45
2018-03-01T11:07:11.360Z,40.64
2018-03-01T11:08:32.346Z,40.73
2018-03-01T11:09:11.341Z,41.02
2018-03-01T11:10:11.326Z,40.84
2018-03-01T11:11:11.324Z,40.75
2018-03-01T11:12:11.294Z,40.28
2018-03-01T11:13:11.297Z,40.73
2018-03-01T11:14:32.273Z,40.75
2018-03-01T11:15:11.272Z,40.19
2018-03-01T11:16:11.280Z,40.47
2018-03-01T11:17:12.087Z,40.56
2018-03-01T11:18:11.237Z,40.00
2018-03-01T11:19:11.208Z,40.00
2018-03-01T11:20:32.218Z,40.00
2018-03-01T11:21:11.193Z,40.19
2018-03-01T11:22:11.185Z,39.81
2018-03-01T11:23:11.197Z,39.81
2018-03-01T11:24:11.158Z,39.81
2018-03-01T11:25:11.164Z,39.36
2018-03-01T11:26:32.141Z,38.79
2018-03-01T11:27:11.113Z,38.69
2018-03-01T11:28:11.115Z,38.50
2018-03-01T11:29:11.144Z,38.41
2018-03-01T11:30:12.563Z,38.22
2018-03-01T11:31:11.083Z,38.03
2018-03-01T11:32:32.058Z,37.65
2018-03-01T11:33:11.049Z,37.65
2018-03-01T11:34:11.043Z,37.74
2018-03-01T11:35:11.020Z,37.65
2018-03-01T11:36:11.027Z,37.84
2018-03-01T11:37:10.993Z,37.55
2018-03-01T11:38:32.483Z,37.37
2018-03-01T11:39:10.979Z,37.08
2018-03-01T11:40:10.970Z,36.82
2018-03-01T11:41:10.958Z,37.19
2018-03-01T11:42:10.955Z,37.01
2018-03-01T11:43:10.944Z,37.08
2018-03-01T11:44:31.924Z,37.08
2018-03-01T11:45:10.914Z,37.08
2018-03-01T11:46:10.903Z,36.99
2018-03-01T11:47:10.903Z,37.37
2018-03-01T11:48:10.890Z,37.74
2018-03-01T11:49:11.706Z,37.55
2018-03-01T11:50:31.847Z,37.65
2018-03-01T11:51:10.846Z,37.93
2018-03-01T11:52:10.843Z,37.46
2018-03-01T11:53:12.920Z,38.22
2018-03-01T11:54:10.805Z,38.41
2018-03-01T11:55:10.802Z,38.22
2018-03-01T11:56:31.796Z,37.84
2018-03-01T11:57:10.771Z,37.84
2018-03-01T11:58:10.786Z,37.27
2018-03-01T11:59:10.756Z,37.46
2018-03-01T12:00:10.752Z,37.55
2018-03-01T12:01:10.731Z,37.08
2018-03-01T12:02:31.736Z,36.71
2018-03-01T12:03:11.230Z,36.99
2018-03-01T12:04:10.714Z,37.08
2018-03-01T12:05:11.620Z,36.80
2018-03-01T12:06:10.693Z,36.71
2018-03-01T12:07:10.666Z,37.37
2018-03-01T12:08:31.677Z,36.90
2018-03-01T12:09:10.654Z,36.91
2018-03-01T12:10:10.653Z,36.72
2018-03-01T12:11:10.640Z,36.06
2018-03-01T12:12:10.642Z,35.87
2018-03-01T12:13:10.612Z,35.87
2018-03-01T12:14:31.611Z,35.87
2018-03-01T12:15:10.593Z,35.77
2018-03-01T12:16:10.586Z,35.30
2018-03-01T12:17:10.568Z,35.30
2018-03-01T12:18:10.577Z,35.30
2018-03-01T12:19:10.562Z,35.68
2018-03-01T12:20:31.530Z,35.68
2018-03-01T12:21:10.551Z,35.32
2018-03-01T12:22:10.537Z,34.64
2018-03-01T12:23:10.531Z,34.36
2018-03-01T12:24:11.426Z,34.74
2018-03-01T12:25:10.495Z,34.45
2018-03-01T12:26:32.427Z,34.55
2018-03-01T12:27:10.464Z,34.45
2018-03-01T12:28:10.491Z,34.45
2018-03-01T12:29:10.445Z,34.55
2018-03-01T12:30:10.452Z,34.55
2018-03-01T12:31:10.441Z,34.64
2018-03-01T12:32:31.440Z,34.64
2018-03-01T12:33:10.419Z,34.56
2018-03-01T12:34:10.403Z,34.47
2018-03-01T12:35:10.405Z,34.19
2018-03-01T12:36:10.375Z,33.90
2018-03-01T12:37:10.387Z,34.09
2018-03-01T12:38:31.362Z,33.90
2018-03-01T12:39:10.350Z,33.90
2018-03-01T12:40:10.344Z,33.90
2018-03-01T12:41:10.326Z,34.00
2018-03-01T12:42:10.320Z,33.71
2018-03-01T12:43:10.326Z,33.62
2018-03-01T12:44:31.335Z,33.62
2018-03-01T12:45:10.271Z,33.71
2018-03-01T12:46:10.291Z,33.71
2018-03-01T12:47:10.250Z,33.52
2018-03-01T12:48:10.267Z,33.71
2018-03-01T12:49:10.252Z,33.71
2018-03-01T12:50:31.250Z,33.71
2018-03-01T12:51:10.246Z,33.50
2018-03-01T12:52:10.210Z,33.81